Time;durP1;ratioP1;P1;durP2;ratioP2;P2;SDS_P1;SDS_P2;PMS_P1;PMS_P2;Temp;Humidity;BMP_temperature;BMP_pressure;BME280_temperature;BME280_humidity;BME280_pressure;Samples;Min_cycle;Max_cycle;Signal;HPM_P1;HPM_P2
2024/04/24 00:00:04;;;;;;;;;;;;;;;19.40;45.59;99906.75;103213;1285;62820;-79
2024/04/24 00:02:30;;;;;;;;;;;;;;;19.40;45.55;99899.98;103225;1286;62185;-80
2024/04/24 00:05:00;;;;;;;;;;;;;;;19.40;45.45;99891.60;103235;1288;62149;-79
2024/04/24 00:07:26;;;;;;;;;;;;;;;19.40;45.63;99883.92;103263;1285;62176;-80
2024/04/24 00:09:51;;;;;;;;;;;;;;;19.40;45.63;99882.85;103169;1285;62525;-81
2024/04/24 00:12:17;;;;;;;;;;;;;;;19.40;45.59;99875.55;103206;1285;62553;-80
2024/04/24 00:14:43;;;;;;;;;;;;;;;19.40;45.68;99872.30;103203;1286;62191;-79
2024/04/24 00:17:11;;;;;;;;;;;;;;;19.40;45.69;99863.41;103283;1285;62335;-79
2024/04/24 00:19:37;;;;;;;;;;;;;;;19.40;45.55;99861.10;103206;1286;62854;-81
2024/04/24 00:22:02;;;;;;;;;;;;;;;19.40;45.60;99854.86;103204;1286;62204;-81
2024/04/24 00:24:29;;;;;;;;;;;;;;;19.40;45.60;99858.42;103185;1285;62174;-81
2024/04/24 00:26:57;;;;;;;;;;;;;;;19.40;45.60;99861.66;103171;1285;62213;-79
2024/04/24 00:29:23;;;;;;;;;;;;;;;19.40;45.67;99854.67;103197;1285;62210;-80
2024/04/24 00:31:50;;;;;;;;;;;;;;;19.40;45.64;99848.80;103074;1286;62332;-79
2024/04/24 00:34:16;;;;;;;;;;;;;;;19.40;45.65;99844.70;103220;1285;62197;-79
2024/04/24 00:36:41;;;;;;;;;;;;;;;19.40;45.65;99841.13;103028;1289;62165;-78
2024/04/24 00:39:07;;;;;;;;;;;;;;;19.39;45.61;99838.46;102942;1292;62344;-78
2024/04/24 00:41:32;;;;;;;;;;;;;;;19.40;45.55;99833.65;102775;1288;63472;-80
2024/04/24 00:43:58;;;;;;;;;;;;;;;19.39;45.55;99828.45;102813;1288;63360;-81
2024/04/24 00:46:26;;;;;;;;;;;;;;;19.39;45.61;99833.13;103017;1289;76582;-79
2024/04/24 00:48:52;;;;;;;;;;;;;;;19.39;45.53;99835.44;102952;1294;62588;-79
2024/04/24 00:51:18;;;;;;;;;;;;;;;19.40;45.62;99830.98;103015;1289;62300;-80
2024/04/24 00:53:43;;;;;;;;;;;;;;;19.39;45.64;99823.33;102988;1289;62361;-81
2024/04/24 00:56:09;;;;;;;;;;;;;;;19.39;45.59;99817.46;102978;1293;63210;-79
2024/04/24 00:58:36;;;;;;;;;;;;;;;19.40;45.55;99817.05;103031;1288;62370;-79
2024/04/24 01:01:01;;;;;;;;;;;;;;;19.39;45.64;99824.38;102725;1295;62267;-81
2024/04/24 01:03:27;;;;;;;;;;;;;;;19.39;45.71;99823.69;103045;1289;62316;-79
2024/04/24 01:05:53;;;;;;;;;;;;;;;19.38;45.63;99819.27;102756;1294;72354;-80
2024/04/24 01:08:20;;;;;;;;;;;;;;;19.38;45.52;99812.66;102973;1288;75104;-81
2024/04/24 01:10:45;;;;;;;;;;;;;;;19.39;45.57;99813.55;103033;1294;62306;-79
2024/04/24 01:13:11;;;;;;;;;;;;;;;19.39;45.47;99804.25;102764;1292;62372;-80
2024/04/24 01:15:36;;;;;;;;;;;;;;;19.39;45.65;99800.14;103198;1291;62114;-79
2024/04/24 01:18:02;;;;;;;;;;;;;;;19.39;45.62;99797.48;103261;1285;62228;-79
2024/04/24 01:20:28;;;;;;;;;;;;;;;19.39;45.59;99793.95;103270;1285;75378;-79
2024/04/24 01:23:01;;;;;;;;;;;;;;;19.39;45.71;99795.89;103215;1291;62191;-80
2024/04/24 01:25:46;;;;;;;;;;;;;;;19.38;45.52;99788.77;103233;1285;62117;-80
2024/04/24 01:28:11;;;;;;;;;;;;;;;19.38;45.71;99792.00;103216;1285;72385;-80
2024/04/24 01:30:37;;;;;;;;;;;;;;;19.38;45.58;99793.41;103200;1286;62273;-80
2024/04/24 01:33:05;;;;;;;;;;;;;;;19.39;45.62;99785.20;103399;1289;62160;-78
2024/04/24 01:35:31;;;;;;;;;;;;;;;19.38;45.58;99777.17;103179;1285;62146;-79
2024/04/24 01:37:56;;;;;;;;;;;;;;;19.38;45.53;99762.38;103228;1285;62194;-79
2024/04/24 01:40:22;;;;;;;;;;;;;;;19.38;45.62;99768.09;103291;1286;62098;-80
2024/04/24 01:42:48;;;;;;;;;;;;;;;19.38;45.64;99763.45;103188;1290;62177;-79
2024/04/24 01:45:13;;;;;;;;;;;;;;;19.38;45.59;99757.03;103217;1285;62186;-79
2024/04/24 01:47:39;;;;;;;;;;;;;;;19.38;45.66;99752.77;103249;1286;62159;-81
2024/04/24 01:50:05;;;;;;;;;;;;;;;19.38;45.49;99745.65;103087;1292;62120;-79
2024/04/24 01:52:30;;;;;;;;;;;;;;;19.38;45.63;99739.36;103220;1285;62197;-80
2024/04/24 01:54:56;;;;;;;;;;;;;;;19.38;45.71;99732.60;103287;1286;62200;-79
2024/04/24 01:57:22;;;;;;;;;;;;;;;19.38;45.76;99733.50;103180;1285;62210;-81
2024/04/24 01:59:48;;;;;;;;;;;;;;;19.38;45.69;99732.24;103276;1286;62276;-81
2024/04/24 02:02:14;;;;;;;;;;;;;;;19.38;45.56;99728.34;103159;1291;72529;-79
2024/04/24 02:04:40;;;;;;;;;;;;;;;19.38;45.66;99727.61;103172;1285;62265;-80
2024/04/24 02:07:05;;;;;;;;;;;;;;;19.38;45.67;99725.48;103239;1285;62202;-78
2024/04/24 02:09:31;;;;;;;;;;;;;;;19.38;45.53;99721.92;103203;1286;62130;-81
2024/04/24 02:11:56;;;;;;;;;;;;;;;19.37;45.79;99721.59;103250;1286;62207;-80
2024/04/24 02:14:22;;;;;;;;;;;;;;;19.37;45.65;99716.79;103176;1289;72523;-80
2024/04/24 02:16:48;;;;;;;;;;;;;;;19.37;45.57;99709.27;103200;1286;62271;-80
2024/04/24 02:19:13;;;;;;;;;;;;;;;19.38;45.57;99706.59;103170;1286;62205;-79
2024/04/24 02:21:39;;;;;;;;;;;;;;;19.38;45.68;99703.73;103209;1290;62140;-80
2024/04/24 02:25:33;;;;;;;;;;;;;;;19.38;45.62;99702.66;103271;1291;62197;-79
2024/04/24 02:26:58;;;;;;;;;;;;;;;19.38;45.70;99706.59;102636;1290;723214;-80
2024/04/24 02:29:24;;;;;;;;;;;;;;;19.37;45.71;99703.21;103221;1285;62245;-79
2024/04/24 02:31:49;;;;;;;;;;;;;;;19.38;45.66;99694.45;103240;1285;62216;-79
2024/04/24 02:34:16;;;;;;;;;;;;;;;19.38;45.65;99692.14;103287;1285;62250;-79
2024/04/24 02:36:42;;;;;;;;;;;;;;;19.37;45.61;99688.57;103310;1289;62287;-81
2024/04/24 02:39:08;;;;;;;;;;;;;;;19.37;45.79;99685.73;103225;1285;63738;-80
2024/04/24 02:41:34;;;;;;;;;;;;;;;19.37;45.68;99684.14;103324;1288;62558;-80
2024/04/24 02:43:59;;;;;;;;;;;;;;;19.38;45.72;99690.53;103247;1289;62265;-80
2024/04/24 02:46:25;;;;;;;;;;;;;;;19.38;45.65;99689.09;103192;1285;63454;-78
2024/04/24 02:48:50;;;;;;;;;;;;;;;19.38;45.72;99686.08;103259;1289;62486;-79
2024/04/24 02:51:16;;;;;;;;;;;;;;;19.38;45.66;99685.89;103170;1285;62130;-80
2024/04/24 02:53:42;;;;;;;;;;;;;;;19.38;45.64;99682.86;103287;1289;62097;-80
2024/04/24 02:56:07;;;;;;;;;;;;;;;19.37;45.62;99673.23;103207;1286;62236;-79
2024/04/24 02:58:33;;;;;;;;;;;;;;;19.37;45.65;99677.19;103253;1289;62311;-79
2024/04/24 03:00:58;;;;;;;;;;;;;;;19.37;45.66;99669.91;103246;1285;62263;-79
2024/04/24 03:03:24;;;;;;;;;;;;;;;19.37;45.61;99667.73;103219;1285;63280;-79
2024/04/24 03:05:50;;;;;;;;;;;;;;;19.37;45.62;99664.00;103237;1291;62191;-81
2024/04/24 03:08:15;;;;;;;;;;;;;;;19.37;45.67;99669.20;103210;1287;62197;-79
2024/04/24 03:10:41;;;;;;;;;;;;;;;19.37;45.66;99672.77;103239;1285;63361;-82
2024/04/24 03:13:07;;;;;;;;;;;;;;;19.37;45.68;99677.91;103265;1285;62196;-80
2024/04/24 03:15:32;;;;;;;;;;;;;;;19.37;45.53;99672.39;103212;1285;62172;-79
2024/04/24 03:17:58;;;;;;;;;;;;;;;19.37;45.72;99667.57;103234;1291;62804;-80
2024/04/24 03:20:23;;;;;;;;;;;;;;;19.37;45.72;99669.56;103225;1285;62078;-80
2024/04/24 03:22:52;;;;;;;;;;;;;;;19.37;45.75;99677.91;103240;1285;62344;-80
2024/04/24 03:25:17;;;;;;;;;;;;;;;19.37;45.89;99674.35;103167;1285;62177;-80
2024/04/24 03:27:43;;;;;;;;;;;;;;;19.37;45.55;99674.16;103174;1286;62267;-78
2024/04/24 03:30:09;;;;;;;;;;;;;;;19.37;45.77;99677.02;103224;1285;63401;-80
2024/04/24 03:32:34;;;;;;;;;;;;;;;19.36;45.72;99681.54;103222;1291;63324;-80
2024/04/24 03:35:00;;;;;;;;;;;;;;;19.36;45.81;99684.21;103227;1290;62190;-79
2024/04/24 03:37:26;;;;;;;;;;;;;;;19.36;45.72;99681.54;103254;1286;72631;-79
2024/04/24 03:39:52;;;;;;;;;;;;;;;19.36;45.92;99679.40;103163;1286;63395;-79
2024/04/24 03:42:17;;;;;;;;;;;;;;;19.36;45.84;99678.33;103291;1285;62225;-80
2024/04/24 03:44:43;;;;;;;;;;;;;;;19.36;45.82;99680.30;103165;1285;62194;-79
2024/04/24 03:47:08;;;;;;;;;;;;;;;19.36;45.88;99686.07;103208;1285;63471;-81
2024/04/24 03:49:34;;;;;;;;;;;;;;;19.35;45.85;99695.39;103279;1286;72496;-79
2024/04/24 03:51:59;;;;;;;;;;;;;;;19.35;45.91;99694.52;103162;1286;62583;-78
2024/04/24 03:54:25;;;;;;;;;;;;;;;19.34;45.91;99695.63;103216;1285;62188;-80
2024/04/24 03:56:50;;;;;;;;;;;;;;;19.34;45.95;99703.33;103189;1285;62248;-80
2024/04/24 03:59:16;;;;;;;;;;;;;;;19.34;46.03;99705.30;103238;1286;62212;-80
2024/04/24 04:01:42;;;;;;;;;;;;;;;19.33;45.97;99704.08;103163;1285;73601;-81
2024/04/24 04:04:07;;;;;;;;;;;;;;;19.33;46.12;99705.00;103130;1286;62200;-80
2024/04/24 04:06:36;;;;;;;;;;;;;;;19.32;45.95;99711.87;103170;1291;62140;-79
2024/04/24 04:09:02;;;;;;;;;;;;;;;19.31;45.96;99710.88;103264;1286;62191;-80
2024/04/24 04:11:28;;;;;;;;;;;;;;;19.31;46.08;99713.02;103153;1288;62108;-80
2024/04/24 04:13:53;;;;;;;;;;;;;;;19.31;46.00;99705.34;103235;1289;63456;-80
2024/04/24 04:16:19;;;;;;;;;;;;;;;19.31;46.01;99711.57;103187;1286;63367;-80
2024/04/24 04:18:45;;;;;;;;;;;;;;;19.30;46.09;99721.81;103239;1286;63107;-80
2024/04/24 04:21:11;;;;;;;;;;;;;;;19.29;45.96;99728.69;103261;1291;62197;-80
2024/04/24 04:23:36;;;;;;;;;;;;;;;19.28;46.05;99732.36;103183;1285;72433;-80
2024/04/24 04:26:02;;;;;;;;;;;;;;;19.26;46.09;99741.20;103150;1285;62384;-82
2024/04/24 04:28:27;;;;;;;;;;;;;;;19.24;46.08;99743.70;103192;1289;62196;-80
2024/04/24 04:30:53;;;;;;;;;;;;;;;19.23;46.02;99742.92;103257;1285;62193;-80
2024/04/24 04:33:18;;;;;;;;;;;;;;;19.21;46.11;99742.33;103267;1290;62297;-82
2024/04/24 04:35:44;;;;;;;;;;;;;;;19.20;46.21;99738.17;103196;1286;72233;-80
2024/04/24 04:38:10;;;;;;;;;;;;;;;19.18;46.04;99731.20;103201;1291;62233;-80
2024/04/24 04:40:35;;;;;;;;;;;;;;;19.17;46.23;99723.07;103407;1285;62191;-80
2024/04/24 04:43:01;;;;;;;;;;;;;;;19.15;46.07;99714.83;103363;1286;63345;-80
2024/04/24 04:45:27;;;;;;;;;;;;;;;19.14;46.17;99725.59;103472;1287;62185;-81
2024/04/24 04:47:52;;;;;;;;;;;;;;;19.13;46.12;99725.55;103574;1288;72386;-80
2024/04/24 04:50:20;;;;;;;;;;;;;;;19.12;46.11;99731.14;103467;1285;62181;-79
2024/04/24 04:52:45;;;;;;;;;;;;;;;19.11;46.12;99727.45;103661;1286;62236;-79
2024/04/24 04:55:11;;;;;;;;;;;;;;;19.09;46.21;99733.66;103580;1288;63436;-80
2024/04/24 04:57:37;;;;;;;;;;;;;;;19.09;46.12;99736.70;103494;1285;62161;-80
2024/04/24 05:00:04;;;;;;;;;;;;;;;19.07;46.25;99736.98;103867;1285;62263;-79
2024/04/24 05:02:29;;;;;;;;;;;;;;;19.06;46.13;99742.78;103901;1285;62197;-78
2024/04/24 05:04:55;;;;;;;;;;;;;;;19.06;46.10;99742.29;104115;1285;62235;-79
2024/04/24 05:07:21;;;;;;;;;;;;;;;19.06;46.19;99743.39;104334;1285;62286;-79
2024/04/24 05:09:47;;;;;;;;;;;;;;;19.05;46.20;99743.92;104211;1285;62084;-80
2024/04/24 05:12:12;;;;;;;;;;;;;;;19.06;46.28;99730.71;104150;1285;62134;-80
2024/04/24 05:14:38;;;;;;;;;;;;;;;19.07;46.42;99723.69;104623;1286;62172;-81
2024/04/24 05:17:03;;;;;;;;;;;;;;;19.08;46.17;99724.86;104469;1286;62087;-78
2024/04/24 05:19:29;;;;;;;;;;;;;;;19.08;46.22;99734.66;104742;1286;62284;-80
2024/04/24 05:21:54;;;;;;;;;;;;;;;19.06;46.42;99736.27;105147;1287;62108;-79
2024/04/24 05:24:20;;;;;;;;;;;;;;;19.06;46.33;99739.41;104979;1286;76469;-78
2024/04/24 05:29:30;;;;;;;;;;;;;;;19.06;46.27;99746.91;105129;1286;62107;-79
2024/04/24 05:31:55;;;;;;;;;;;;;;;19.06;46.33;99744.77;104910;1285;62156;-78
2024/04/24 05:34:21;;;;;;;;;;;;;;;19.06;46.34;99743.49;104599;1288;64585;-79
2024/04/24 05:36:46;;;;;;;;;;;;;;;19.06;46.44;99736.02;104848;1291;62671;-79
2024/04/24 05:39:12;;;;;;;;;;;;;;;19.06;46.32;99732.13;105018;1287;62294;-79
2024/04/24 05:41:37;;;;;;;;;;;;;;;19.06;46.40;99721.59;104834;1288;60493;-78
2024/04/24 05:44:03;;;;;;;;;;;;;;;19.06;46.37;99722.13;105155;1285;62073;-80
2024/04/24 05:46:29;;;;;;;;;;;;;;;19.05;46.32;99721.67;104969;1288;62128;-79
2024/04/24 05:48:54;;;;;;;;;;;;;;;19.04;46.33;99722.11;104972;1285;62193;-80
2024/04/24 05:51:20;;;;;;;;;;;;;;;19.03;46.47;99721.81;105213;1285;62461;-79
2024/04/24 05:53:45;;;;;;;;;;;;;;;19.03;46.48;99718.83;104983;1285;62079;-79
2024/04/24 05:56:11;;;;;;;;;;;;;;;19.02;46.60;99721.58;104671;1291;62222;-79
2024/04/24 05:58:36;;;;;;;;;;;;;;;19.02;46.62;99726.95;104836;1285;64379;-78
2024/04/24 06:01:02;;;;;;;;;;;;;;;19.04;46.71;99729.62;105142;1286;62195;-78
2024/04/24 06:03:29;;;;;;;;;;;;;;;19.03;46.85;99730.41;104992;1286;62193;-79
2024/04/24 06:05:54;;;;;;;;;;;;;;;19.02;46.83;99727.29;105029;1285;62072;-79
2024/04/24 06:08:20;;;;;;;;;;;;;;;19.03;47.12;99726.99;104539;1286;62110;-79
2024/04/24 06:10:45;;;;;;;;;;;;;;;19.04;47.05;99722.45;104628;1285;60809;-78
2024/04/24 06:13:11;;;;;;;;;;;;;;;19.04;47.03;99722.84;104532;1285;62172;-79
2024/04/24 06:15:37;;;;;;;;;;;;;;;19.04;46.95;99726.36;104257;1286;60150;-79
2024/04/24 06:18:02;;;;;;;;;;;;;;;19.04;47.09;99718.00;104332;1287;62179;-79
2024/04/24 06:20:28;;;;;;;;;;;;;;;19.04;47.16;99717.98;104647;1288;62065;-81
2024/04/24 06:22:53;;;;;;;;;;;;;;;19.05;47.04;99722.07;104682;1285;62251;-81
2024/04/24 06:25:19;;;;;;;;;;;;;;;19.04;47.02;99723.02;104547;1288;62111;-80
2024/04/24 06:27:44;;;;;;;;;;;;;;;19.01;47.17;99728.05;104487;1288;59903;-80
2024/04/24 06:30:10;;;;;;;;;;;;;;;19.01;47.17;99726.46;104638;1285;62070;-80
2024/04/24 06:32:36;;;;;;;;;;;;;;;19.02;47.06;99730.82;104317;1288;62255;-80
2024/04/24 06:35:02;;;;;;;;;;;;;;;19.05;47.06;99732.95;104245;1288;62132;-80
2024/04/24 06:37:29;;;;;;;;;;;;;;;19.05;47.22;99732.71;104475;1285;62314;-80
2024/04/24 06:39:54;;;;;;;;;;;;;;;19.07;47.25;99729.20;104451;1286;62105;-81
2024/04/24 06:42:20;;;;;;;;;;;;;;;19.07;47.12;99732.21;104761;1291;62184;-80
2024/04/24 06:44:46;;;;;;;;;;;;;;;19.08;47.15;99734.27;106568;1285;62041;-79
2024/04/24 06:47:11;;;;;;;;;;;;;;;19.09;47.23;99728.33;104478;1290;62231;-79
2024/04/24 06:49:37;;;;;;;;;;;;;;;19.10;47.27;99730.76;104358;1285;62436;-81
2024/04/24 06:52:06;;;;;;;;;;;;;;;19.11;47.20;99732.46;104378;1285;62121;-79
2024/04/24 06:54:31;;;;;;;;;;;;;;;19.11;47.36;99735.31;104347;1288;72729;-79
2024/04/24 06:56:57;;;;;;;;;;;;;;;19.12;47.20;99738.77;104427;1291;62673;-79
2024/04/24 06:59:23;;;;;;;;;;;;;;;19.12;47.50;99743.10;104515;1285;62415;-79
2024/04/24 07:01:48;;;;;;;;;;;;;;;19.11;47.36;99740.27;104518;1285;62279;-78
2024/04/24 07:04:14;;;;;;;;;;;;;;;19.11;47.45;99750.12;104918;1285;62179;-80
2024/04/24 07:06:41;;;;;;;;;;;;;;;19.10;47.47;99751.09;104595;1290;62110;-80
2024/04/24 07:09:06;;;;;;;;;;;;;;;19.08;47.37;99760.63;104435;1285;75246;-78
2024/04/24 07:11:32;;;;;;;;;;;;;;;19.10;47.62;99763.39;104578;1285;62164;-80
2024/04/24 07:13:57;;;;;;;;;;;;;;;19.10;47.66;99767.98;104461;1288;60875;-79
2024/04/24 07:16:23;;;;;;;;;;;;;;;19.13;47.82;99763.33;104452;1289;62114;-80
2024/04/24 07:18:49;;;;;;;;;;;;;;;19.17;47.86;99764.95;104981;1285;62206;-80
2024/04/24 07:21:14;;;;;;;;;;;;;;;19.19;48.04;99766.53;104924;1288;74814;-79
2024/04/24 07:23:40;;;;;;;;;;;;;;;19.21;48.13;99769.42;104979;1291;62149;-79
2024/04/24 07:26:05;;;;;;;;;;;;;;;19.24;48.25;99766.02;104664;1289;62162;-79
2024/04/24 07:28:31;;;;;;;;;;;;;;;19.25;48.35;99771.30;104658;1288;62155;-80
2024/04/24 07:30:57;;;;;;;;;;;;;;;19.25;48.30;99772.38;104679;1288;60411;-80
2024/04/24 07:33:22;;;;;;;;;;;;;;;19.25;48.30;99781.09;104923;1286;62206;-79
2024/04/24 07:35:48;;;;;;;;;;;;;;;19.25;48.25;99784.31;104724;1286;62118;-79
2024/04/24 07:38:15;;;;;;;;;;;;;;;19.24;48.29;99789.02;104950;1285;62111;-81
2024/04/24 07:40:41;;;;;;;;;;;;;;;19.24;48.17;99794.36;104877;1288;72654;-80
2024/04/24 07:43:13;;;;;;;;;;;;;;;19.23;48.41;99790.69;104783;1291;62188;-81
2024/04/24 07:45:42;;;;;;;;;;;;;;;19.23;48.30;99794.80;104532;1286;62114;-81
2024/04/24 07:48:08;;;;;;;;;;;;;;;19.21;48.27;99793.69;104721;1286;63404;-80
2024/04/24 07:50:34;;;;;;;;;;;;;;;19.19;48.40;99793.20;104824;1286;62193;-81
2024/04/24 07:53:01;;;;;;;;;;;;;;;19.17;48.34;99796.33;104984;1288;62199;-81
2024/04/24 07:55:27;;;;;;;;;;;;;;;19.16;48.41;99798.41;104988;1286;62146;-81
2024/04/24 07:57:52;;;;;;;;;;;;;;;19.13;48.60;99799.04;104952;1285;62249;-80
2024/04/24 08:00:18;;;;;;;;;;;;;;;19.09;48.50;99801.08;104907;1290;62206;-80
2024/04/24 08:02:43;;;;;;;;;;;;;;;19.07;48.67;99796.95;104588;1288;62072;-80
2024/04/24 08:05:09;;;;;;;;;;;;;;;19.06;48.74;99800.95;104835;1286;62194;-80
2024/04/24 08:07:35;;;;;;;;;;;;;;;19.07;48.86;99801.95;104623;1286;62248;-80
2024/04/24 08:10:00;;;;;;;;;;;;;;;19.07;48.82;99804.28;104450;1285;62354;-80
2024/04/24 08:12:26;;;;;;;;;;;;;;;19.08;48.93;99805.42;104568;1286;62014;-80
2024/04/24 08:14:51;;;;;;;;;;;;;;;19.09;48.92;99805.91;104248;1291;62190;-80
2024/04/24 08:17:17;;;;;;;;;;;;;;;19.08;48.81;99806.34;103989;1286;62538;-80
2024/04/24 08:19:42;;;;;;;;;;;;;;;19.08;48.76;99800.61;104011;1285;63928;-81
2024/04/24 08:22:08;;;;;;;;;;;;;;;19.07;48.74;99802.83;104262;1286;61186;-80
2024/04/24 08:24:33;;;;;;;;;;;;;;;19.09;48.85;99801.63;103885;1288;62146;-78
2024/04/24 08:26:59;;;;;;;;;;;;;;;19.10;48.69;99797.95;104138;1286;62160;-81
2024/04/24 08:29:27;;;;;;;;;;;;;;;19.13;48.73;99799.73;104138;1286;62191;-79
2024/04/24 08:31:53;;;;;;;;;;;;;;;19.14;48.80;99790.17;103879;1290;62776;-81
2024/04/24 08:34:18;;;;;;;;;;;;;;;19.16;48.84;99791.08;104244;1287;62233;-79
2024/04/24 08:36:44;;;;;;;;;;;;;;;19.18;48.79;99787.35;104097;1285;62194;-81
2024/04/24 08:39:14;;;;;;;;;;;;;;;19.20;48.77;99791.81;104070;1286;62149;-80
2024/04/24 08:41:41;;;;;;;;;;;;;;;19.22;48.85;99791.34;104616;1285;62035;-81
2024/04/24 08:44:07;;;;;;;;;;;;;;;19.21;48.82;99786.20;104383;1291;60816;-81
2024/04/24 08:46:32;;;;;;;;;;;;;;;19.22;48.96;99788.50;104410;1285;62180;-80
2024/04/24 08:48:58;;;;;;;;;;;;;;;19.22;48.81;99789.93;104673;1285;62077;-81
2024/04/24 08:51:23;;;;;;;;;;;;;;;19.20;48.89;99789.71;104415;1285;62597;-80
2024/04/24 08:53:53;;;;;;;;;;;;;;;19.17;48.97;99794.93;104990;1288;62353;-81
2024/04/24 08:56:20;;;;;;;;;;;;;;;19.13;48.95;99791.30;104885;1286;62167;-80
2024/04/24 08:58:45;;;;;;;;;;;;;;;19.12;49.05;99792.84;104969;1286;61425;-80
2024/04/24 09:01:12;;;;;;;;;;;;;;;19.13;48.95;99788.81;104836;1291;62226;-81
2024/04/24 09:03:39;;;;;;;;;;;;;;;19.15;49.12;99789.20;104915;1286;62101;-81
2024/04/24 09:06:08;;;;;;;;;;;;;;;19.17;49.15;99783.84;104957;1286;62083;-80
2024/04/24 09:08:33;;;;;;;;;;;;;;;19.21;49.08;99787.32;105129;1286;72518;-81
2024/04/24 09:10:59;;;;;;;;;;;;;;;19.24;49.15;99788.11;105075;1285;62153;-82
2024/04/24 09:13:24;;;;;;;;;;;;;;;19.23;49.12;99787.67;105364;1286;62133;-81
2024/04/24 09:15:50;;;;;;;;;;;;;;;19.24;49.00;99786.19;105516;1291;62113;-82
2024/04/24 09:18:16;;;;;;;;;;;;;;;19.26;48.99;99782.61;105367;1289;61825;-80
2024/04/24 09:20:42;;;;;;;;;;;;;;;19.29;48.97;99784.89;105009;1286;62085;-81
2024/04/24 09:23:10;;;;;;;;;;;;;;;19.32;48.93;99785.04;104773;1286;74622;-81
2024/04/24 09:25:37;;;;;;;;;;;;;;;19.33;48.84;99784.96;105023;1285;62091;-81
2024/04/24 09:28:03;;;;;;;;;;;;;;;19.34;48.96;99784.31;105159;1286;62011;-81
2024/04/24 09:30:28;;;;;;;;;;;;;;;19.35;48.98;99781.23;105046;1286;62178;-81
2024/04/24 09:32:55;;;;;;;;;;;;;;;19.36;48.84;99779.66;105179;1286;62287;-81
2024/04/24 09:35:21;;;;;;;;;;;;;;;19.38;48.93;99778.48;104685;1287;62188;-80
2024/04/24 09:37:48;;;;;;;;;;;;;;;19.39;48.88;99780.87;105402;1291;61958;-81
2024/04/24 09:40:13;;;;;;;;;;;;;;;19.40;48.74;99780.25;104554;1291;60111;-81
2024/04/24 09:42:39;;;;;;;;;;;;;;;19.41;48.66;99785.91;104529;1286;63370;-80
2024/04/24 09:45:05;;;;;;;;;;;;;;;19.41;48.54;99785.58;104795;1286;62182;-82
2024/04/24 09:47:31;;;;;;;;;;;;;;;19.40;48.68;99783.28;104298;1286;62168;-80
2024/04/24 09:49:56;;;;;;;;;;;;;;;19.41;48.55;99785.20;103924;1285;62143;-81
2024/04/24 09:52:22;;;;;;;;;;;;;;;19.41;48.56;99780.88;104037;1290;62111;-80
2024/04/24 09:54:50;;;;;;;;;;;;;;;19.42;48.52;99776.49;104187;1287;61947;-79
2024/04/24 09:57:16;;;;;;;;;;;;;;;19.43;48.35;99774.66;104298;1286;62187;-79
2024/04/24 09:59:41;;;;;;;;;;;;;;;19.42;48.53;99776.16;104722;1286;62116;-81
2024/04/24 10:02:07;;;;;;;;;;;;;;;19.43;48.40;99775.94;104335;1291;62033;-80
2024/04/24 10:04:34;;;;;;;;;;;;;;;19.43;48.41;99778.23;104448;1285;62191;-80
2024/04/24 10:07:01;;;;;;;;;;;;;;;19.42;48.31;99770.58;104878;1290;61976;-79
2024/04/24 10:09:27;;;;;;;;;;;;;;;19.44;48.49;99770.33;106472;1286;60101;-80
2024/04/24 10:11:56;;;;;;;;;;;;;;;19.45;48.52;99763.84;106279;1286;60290;-80
2024/04/24 10:14:23;;;;;;;;;;;;;;;19.46;48.62;99766.39;106297;1286;76504;-80
2024/04/24 10:16:48;;;;;;;;;;;;;;;19.47;48.55;99762.23;105647;1286;59916;-80
2024/04/24 10:19:14;;;;;;;;;;;;;;;19.48;48.52;99764.83;104848;1286;62193;-80
2024/04/24 10:21:40;;;;;;;;;;;;;;;19.49;48.45;99768.13;104640;1291;62241;-81
2024/04/24 10:24:05;;;;;;;;;;;;;;;19.49;48.51;99770.60;104493;1288;63727;-80
2024/04/24 10:26:31;;;;;;;;;;;;;;;19.51;48.39;99771.70;104632;1286;62290;-81
2024/04/24 10:28:56;;;;;;;;;;;;;;;19.52;48.35;99770.37;104757;1289;62126;-81
2024/04/24 10:31:22;;;;;;;;;;;;;;;19.52;48.27;99764.83;104603;1286;62140;-81
2024/04/24 10:33:48;;;;;;;;;;;;;;;19.53;48.07;99763.51;104625;1286;61979;-81
2024/04/24 10:36:13;;;;;;;;;;;;;;;19.54;48.23;99765.94;104790;1291;62181;-80
2024/04/24 10:38:41;;;;;;;;;;;;;;;19.55;48.18;99768.01;104512;1287;62433;-81
2024/04/24 10:41:07;;;;;;;;;;;;;;;19.55;48.04;99762.48;104204;1286;62090;-79
2024/04/24 10:43:34;;;;;;;;;;;;;;;19.55;48.30;99766.36;104247;1286;62218;-79
2024/04/24 10:46:01;;;;;;;;;;;;;;;19.56;48.14;99765.57;104248;1291;62247;-79
2024/04/24 10:48:46;;;;;;;;;;;;;;;19.55;48.04;99759.21;103893;1290;62900;-80
2024/04/24 10:51:11;;;;;;;;;;;;;;;19.53;48.12;99758.86;104103;1285;63573;-79
2024/04/24 10:53:47;;;;;;;;;;;;;;;19.53;47.94;99756.06;104266;1289;62210;-80
2024/04/24 10:56:18;;;;;;;;;;;;;;;19.52;48.05;99748.02;104477;1294;74884;-79
2024/04/24 10:58:52;;;;;;;;;;;;;;;19.52;48.04;99740.76;104398;1285;62145;-80
2024/04/24 11:01:18;;;;;;;;;;;;;;;19.52;47.92;99743.98;104213;1286;62055;-79
2024/04/24 11:03:43;;;;;;;;;;;;;;;19.52;47.93;99744.64;103908;1290;62171;-79
2024/04/24 11:06:10;;;;;;;;;;;;;;;19.50;47.91;99744.09;103969;1291;63352;-81
2024/04/24 11:08:36;;;;;;;;;;;;;;;19.48;47.97;99743.77;103702;1291;62174;-81
2024/04/24 11:11:01;;;;;;;;;;;;;;;19.46;47.88;99742.14;103559;1289;62412;-80
2024/04/24 11:13:27;;;;;;;;;;;;;;;19.46;47.93;99742.35;103136;1289;62349;-80
2024/04/24 11:16:02;;;;;;;;;;;;;;;19.45;47.84;99743.16;103276;1294;71446;-80
2024/04/24 11:18:28;;;;;;;;;;;;;;;19.42;47.88;99743.86;103552;1294;75087;-79
2024/04/24 11:20:53;;;;;;;;;;;;;;;19.42;47.98;99740.14;104108;1289;61885;-79
2024/04/24 11:23:20;;;;;;;;;;;;;;;19.41;47.77;99736.84;104424;1290;62177;-82
2024/04/24 11:25:50;;;;;;;;;;;;;;;19.41;47.90;99735.42;104182;1290;62213;-80
2024/04/24 11:28:16;;;;;;;;;;;;;;;19.41;47.88;99733.43;103890;1294;75366;-79
2024/04/24 11:30:44;;;;;;;;;;;;;;;19.42;47.90;99731.40;103521;1294;62197;-81
2024/04/24 11:33:09;;;;;;;;;;;;;;;19.43;47.74;99730.27;103429;1289;62121;-80
2024/04/24 11:35:35;;;;;;;;;;;;;;;19.43;47.74;99729.73;103338;1292;62395;-80
2024/04/24 11:38:02;;;;;;;;;;;;;;;19.42;47.86;99728.71;103613;1294;62143;-80
2024/04/24 11:40:27;;;;;;;;;;;;;;;19.41;47.86;99733.94;103468;1287;62175;-81
2024/04/24 11:42:53;;;;;;;;;;;;;;;19.41;47.84;99732.02;104102;1292;62205;-80
2024/04/24 11:45:21;;;;;;;;;;;;;;;19.40;47.78;99733.65;104167;1291;62117;-80
2024/04/24 11:47:50;;;;;;;;;;;;;;;19.41;47.91;99740.36;104187;1286;62203;-81
2024/04/24 11:50:17;;;;;;;;;;;;;;;19.42;47.74;99739.58;104340;1291;62005;-80
2024/04/24 11:52:42;;;;;;;;;;;;;;;19.44;47.70;99742.64;104715;1289;62093;-80
2024/04/24 11:55:08;;;;;;;;;;;;;;;19.45;47.84;99734.38;104408;1286;62124;-80
2024/04/24 11:57:37;;;;;;;;;;;;;;;19.47;47.76;99736.19;104627;1286;62171;-80
2024/04/24 12:00:03;;;;;;;;;;;;;;;19.49;47.82;99728.92;104843;1287;61493;-80
2024/04/24 12:02:32;;;;;;;;;;;;;;;19.50;47.83;99724.88;104590;1292;60034;-80
2024/04/24 12:04:57;;;;;;;;;;;;;;;19.51;47.82;99722.07;104526;1287;74198;-80
2024/04/24 12:07:28;;;;;;;;;;;;;;;19.52;47.75;99715.98;104533;1289;62216;-80
2024/04/24 12:09:53;;;;;;;;;;;;;;;19.53;47.75;99716.08;104253;1286;62147;-80
2024/04/24 12:12:19;;;;;;;;;;;;;;;19.54;47.75;99719.54;104214;1292;60925;-80
2024/04/24 12:14:48;;;;;;;;;;;;;;;19.55;47.77;99715.54;104051;1287;63374;-80
2024/04/24 12:17:14;;;;;;;;;;;;;;;19.56;47.78;99712.75;104119;1289;75075;-80
2024/04/24 12:19:41;;;;;;;;;;;;;;;19.57;47.94;99712.52;104185;1290;62177;-80
2024/04/24 12:22:06;;;;;;;;;;;;;;;19.58;47.64;99715.85;104206;1290;62114;-79
2024/04/24 12:24:32;;;;;;;;;;;;;;;19.58;47.71;99718.48;104265;1289;62045;-79
2024/04/24 12:26:58;;;;;;;;;;;;;;;19.59;47.70;99722.85;104009;1289;62203;-79
2024/04/24 12:29:24;;;;;;;;;;;;;;;19.59;47.80;99721.20;104177;1286;62443;-79
2024/04/24 12:31:50;;;;;;;;;;;;;;;19.60;47.72;99723.87;104033;1286;62131;-80